Time;durP1;ratioP1;P1;durP2;ratioP2;P2;SDS_P1;SDS_P2;PMS_P1;PMS_P2;Temp;Humidity;BMP_temperature;BMP_pressure;BME280_temperature;BME280_humidity;BME280_pressure;Samples;Min_cycle;Max_cycle;Signal;HPM_P1;HPM_P2
2022/08/22 00:00:10;;;;;;;3.70;1.33;;;25.40;62.50;;;;;;5054945;28;20110;-54
2022/08/22 00:02:59;;;;;;;4.00;1.27;;;25.20;68.10;;;;;;5054837;28;20108;-51
2022/08/22 00:06:02;;;;;;;3.33;1.20;;;25.50;62.70;;;;;;5054858;28;20041;-49
2022/08/22 00:08:34;;;;;;;1.42;1.10;;;25.40;62.80;;;;;;5054824;28;20033;-50
2022/08/22 00:11:15;;;;;;;2.85;1.13;;;25.60;68.30;;;;;;5054681;28;20102;-52
2022/08/22 00:13:54;;;;;;;2.28;1.15;;;25.40;62.70;;;;;;5054658;28;20574;-50
2022/08/22 00:16:20;;;;;;;2.53;1.17;;;;;;;;;;5054783;28;20388;-50
2022/08/22 00:18:51;;;;;;;1.90;1.23;;;25.30;62.70;;;;;;5054398;28;20023;-52
2022/08/22 00:21:26;;;;;;;2.33;1.10;;;25.40;68.30;;;;;;5054607;28;20104;-47
2022/08/22 00:24:18;;;;;;;3.03;1.23;;;25.40;62.60;;;;;;5054409;28;20025;-51
2022/08/22 00:27:00;;;;;;;3.67;1.40;;;25.40;68.10;;;;;;5054391;28;20083;-49
2022/08/22 00:29:40;;;;;;;1.48;1.00;;;25.40;68.40;;;;;;5054414;28;20132;-53
2022/08/22 00:32:25;;;;;;;3.33;1.25;;;25.40;68.50;;;;;;5054340;28;20017;-51
2022/08/22 00:35:13;;;;;;;2.83;1.25;;;25.40;62.90;;;;;;5054311;28;20025;-50
2022/08/22 00:37:39;;;;;;;2.28;1.08;;;;;;;;;;5054170;28;20110;-51
2022/08/22 00:40:29;;;;;;;3.38;1.67;;;25.60;63.20;;;;;;5054206;28;20020;-51
2022/08/22 00:43:04;;;;;;;3.65;1.23;;;25.40;63.00;;;;;;5054136;28;20033;-51
2022/08/22 00:46:02;;;;;;;2.67;1.13;;;25.30;62.80;;;;;;5054022;28;20376;-52
2022/08/22 00:48:56;;;;;;;3.30;1.25;;;25.40;63.00;;;;;;5054086;28;20075;-49
2022/08/22 00:51:22;;;;;;;3.67;1.27;;;;;;;;;;5054030;28;20517;-52
2022/08/22 00:54:15;;;;;;;1.50;1.10;;;25.40;63.00;;;;;;5053867;28;20105;-49
2022/08/22 00:57:17;;;;;;;1.92;1.08;;;25.30;63.10;;;;;;5053933;28;20028;-50
2022/08/22 01:00:09;;;;;;;2.42;1.30;;;25.30;63.20;;;;;;5054156;28;20115;-49
2022/08/22 01:02:35;;;;;;;2.78;1.30;;;;;;;;;;5053729;28;20029;-52
2022/08/22 01:05:31;;;;;;;3.00;0.93;;;25.30;63.20;;;;;;5053353;28;20139;-53
2022/08/22 01:08:35;;;;;;;1.90;1.10;;;25.30;63.30;;;;;;5053644;28;20056;-50
2022/08/22 01:11:28;;;;;;;1.83;1.10;;;25.10;68.70;;;;;;5053568;28;20364;-53
2022/08/22 01:14:37;;;;;;;2.25;1.00;;;25.10;63.20;;;;;;5053512;28;20387;-49
2022/08/22 01:17:24;;;;;;;2.67;1.20;;;25.30;63.20;;;;;;5053413;28;20028;-51
2022/08/22 01:20:14;;;;;;;1.63;1.42;;;25.30;63.20;;;;;;5053434;28;20147;-50
2022/08/22 01:22:40;;;;;;;1.50;0.98;;;;;;;;;;5053349;28;20083;-52
2022/08/22 01:25:18;;;;;;;2.70;1.40;;;;;;;;;;5053176;28;20036;-53
2022/08/22 01:27:44;;;;;;;1.90;0.90;;;;;;;;;;5053265;28;20029;-53
2022/08/22 01:30:45;;;;;;;2.90;1.58;;;25.30;63.30;;;;;;5052616;28;20108;-52
2022/08/22 01:33:17;;;;;;;1.83;1.10;;;25.30;63.40;;;;;;5053174;28;20112;-54
2022/08/22 01:35:42;;;;;;;2.67;1.40;;;;;;;;;;5053241;28;20132;-54
2022/08/22 01:38:33;;;;;;;2.03;1.20;;;25.30;63.50;;;;;;5053038;28;20057;-54
2022/08/22 01:40:59;;;;;;;3.40;1.23;;;;;;;;;;5053031;28;20451;-53
2022/08/22 01:43:36;;;;;;;1.45;0.90;;;25.20;69.00;;;;;;5052872;28;20060;-54
2022/08/22 01:46:19;;;;;;;4.65;1.58;;;25.30;63.30;;;;;;5052807;28;20033;-52
2022/08/22 01:49:02;;;;;;;3.00;1.25;;;23.90;62.80;;;;;;5052857;28;20379;-52
2022/08/22 01:51:41;;;;;;;2.22;0.95;;;25.30;69.10;;;;;;5053079;28;20380;-52
2022/08/22 01:54:20;;;;;;;4.05;1.35;;;25.00;68.80;;;;;;5052860;28;20082;-53
2022/08/22 01:56:46;;;;;;;1.42;1.10;;;;;;;;;;5052856;28;20021;-50
2022/08/22 01:59:23;;;;;;;2.03;1.00;;;25.30;69.20;;;;;;5052660;28;20104;-49
2022/08/22 02:01:51;;;;;;;3.45;1.17;;;;;;;;;;5052685;28;20682;-51
2022/08/22 02:04:19;;;;;;;2.75;1.50;;;25.00;63.40;;;;;;5052341;28;20041;-49
2022/08/22 02:07:18;;;;;;;3.50;1.33;;;25.30;63.60;;;;;;5052563;28;20433;-50
2022/08/22 02:09:58;;;;;;;2.15;1.10;;;25.20;69.10;;;;;;5052526;28;20036;-52
2022/08/22 02:12:58;;;;;;;2.05;1.20;;;25.20;63.60;;;;;;5052492;28;20021;-50
2022/08/22 02:15:39;;;;;;;;;;;25.20;64.60;;;;;;5052905;28;20014;-50
2022/08/22 02:18:05;;;;;;;3.15;1.35;;;;;;;;;;5052419;28;19905;-50
2022/08/22 02:20:56;;;;;;;2.00;0.90;;;25.20;63.60;;;;;;5052304;28;20404;-52
2022/08/22 02:23:53;;;;;;;2.72;1.00;;;25.20;63.50;;;;;;5052260;28;20483;-50
2022/08/22 02:26:45;;;;;;;3.30;1.20;;;25.10;63.60;;;;;;5052248;28;20112;-50
2022/08/22 02:29:16;;;;;;;3.30;1.33;;;25.20;69.40;;;;;;5052312;28;20021;-49
2022/08/22 02:31:53;;;;;;;1.67;0.90;;;25.20;63.70;;;;;;5052327;28;20013;-50
2022/08/22 02:34:44;;;;;;;1.80;1.40;;;25.20;63.60;;;;;;5052075;28;20376;-52
2022/08/22 02:37:15;;;;;;;3.03;1.15;;;25.20;64.20;;;;;;5052447;28;20056;-50
2022/08/22 02:39:55;;;;;;;2.40;1.27;;;25.20;69.80;;;;;;5052156;28;20103;-50
2022/08/22 02:42:50;;;;;;;3.42;1.23;;;25.10;63.80;;;;;;5051193;28;20013;-51
2022/08/22 02:45:27;;;;;;;1.65;1.20;;;25.10;63.90;;;;;;5051971;28;20055;-53
2022/08/22 02:47:55;;;;;;;2.20;1.23;;;;;;;;;;5052061;28;20039;-50
2022/08/22 02:50:21;;;;;;;3.28;1.10;;;;;;;;;;5052110;28;20025;-50
2022/08/22 02:53:02;;;;;;;2.65;1.20;;;25.30;64.00;;;;;;5051986;28;20028;-50
2022/08/22 02:55:40;;;;;;;3.75;1.35;;;25.20;63.90;;;;;;5052253;28;20075;-49
2022/08/22 02:58:33;;;;;;;2.25;1.17;;;25.20;63.90;;;;;;5051992;28;20025;-52
2022/08/22 03:01:01;;;;;;;3.40;1.08;;;25.00;63.80;;;;;;5051959;28;20546;-53
2022/08/22 03:03:34;;;;;;;2.22;1.38;;;25.10;69.40;;;;;;5051654;28;20045;-50
2022/08/22 03:06:00;;;;;;;3.47;1.20;;;;;;;;;;5051920;28;20090;-49
2022/08/22 03:08:38;;;;;;;2.83;1.52;;;25.20;63.90;;;;;;5051807;28;20032;-51
2022/08/22 03:11:12;;;;;;;2.90;1.58;;;25.20;69.40;;;;;;5051877;28;20480;-50
2022/08/22 03:13:46;;;;;;;2.47;1.38;;;25.20;63.80;;;;;;5051781;28;20538;-50
2022/08/22 03:16:32;;;;;;;2.78;1.38;;;25.10;63.80;;;;;;5051793;28;20472;-52
2022/08/22 03:19:05;;;;;;;2.70;1.33;;;25.10;69.40;;;;;;5051843;28;20025;-52
2022/08/22 03:22:06;;;;;;;2.00;1.30;;;25.10;63.90;;;;;;5051779;28;20032;-49
2022/08/22 03:24:31;;;;;;;2.03;1.30;;;;;;;;;;5051519;28;20499;-49
2022/08/22 03:27:20;;;;;;;3.03;1.40;;;25.10;63.90;;;;;;5051709;28;20033;-51
2022/08/22 03:29:52;;;;;;;2.05;1.20;;;25.10;69.50;;;;;;5051644;28;20017;-50
2022/08/22 03:32:42;;;;;;;3.20;1.15;;;25.10;63.90;;;;;;5051660;28;20036;-53
2022/08/22 03:35:20;;;;;;;2.20;1.08;;;25.10;69.70;;;;;;5037488;28;20492;-52
2022/08/22 03:37:46;;;;;;;3.00;1.40;;;;;;;;;;5051610;28;20025;-50
2022/08/22 03:40:18;;;;;;;2.15;0.88;;;25.00;63.90;;;;;;5051569;28;20158;-51
2022/08/22 03:43:23;;;;;;;3.17;1.05;;;25.10;64.00;;;;;;5051525;28;20028;-52
2022/08/22 03:45:49;;;;;;;1.75;1.13;;;;;;;;;;5050815;28;20045;-50
2022/08/22 03:48:54;;;;;;;1.50;1.00;;;25.10;64.00;;;;;;5051505;28;20498;-49
2022/08/22 03:51:30;;;;;;;1.73;1.10;;;25.10;69.70;;;;;;5051449;28;20025;-53
2022/08/22 03:54:22;;;;;;;2.30;1.30;;;25.10;69.50;;;;;;5054037;28;20108;-51
2022/08/22 03:57:35;;;;;;;3.08;1.35;;;25.20;64.10;;;;;;5044230;28;20394;-49
2022/08/22 04:00:19;;;;;;;2.75;1.13;;;25.00;64.00;;;;;;5055236;28;20460;-50
2022/08/22 04:06:43;;;;;;;1.45;0.80;;;25.10;64.00;;;;;;5061900;28;20079;-56
2022/08/22 04:09:21;;;;;;;1.35;0.93;;;24.90;64.10;;;;;;5055267;28;20422;-56
2022/08/22 04:12:24;;;;;;;1.70;0.95;;;25.00;64.00;;;;;;5054845;28;20082;-57
2022/08/22 04:14:50;;;;;;;3.40;1.15;;;;;;;;;;5036858;28;20471;-57
2022/08/22 04:17:47;;;;;;;1.50;1.10;;;25.00;64.10;;;;;;5054838;28;20016;-55
2022/08/22 04:20:41;;;;;;;3.03;1.52;;;25.30;69.90;;;;;;5054734;28;20466;-56
2022/08/22 04:23:16;;;;;;;1.92;1.08;;;25.10;64.00;;;;;;5010360;28;20037;-57
2022/08/22 04:25:49;;;;;;;1.55;1.00;;;25.10;69.60;;;;;;5054458;28;20033;-57
2022/08/22 04:28:15;;;;;;;3.88;1.65;;;;;;;;;;5054556;28;20090;-57
2022/08/22 04:31:10;;;;;;;3.13;1.10;;;24.90;64.00;;;;;;5054420;28;20021;-56
2022/08/22 04:34:01;;;;;;;1.60;0.98;;;25.10;64.10;;;;;;5054437;28;20028;-55
2022/08/22 04:36:27;;;;;;;3.33;1.30;;;;;;;;;;5054492;28;20107;-56
2022/08/22 04:38:57;;;;;;;1.48;1.13;;;25.10;69.70;;;;;;5054347;28;20163;-57
2022/08/22 04:42:08;;;;;;;2.67;1.10;;;25.00;64.10;;;;;;5054277;28;20029;-56
2022/08/22 04:45:02;;;;;;;1.70;1.00;;;25.10;64.10;;;;;;5008049;28;20128;-55
2022/08/22 04:47:28;;;;;;;1.88;0.82;;;;;;;;;;5054223;28;20704;-56
2022/08/22 04:50:06;;;;;;;3.10;1.42;;;25.00;70.00;;;;;;5054151;28;20088;-56
2022/08/22 04:52:52;;;;;;;1.48;0.95;;;25.00;64.20;;;;;;5054076;28;20120;-56
2022/08/22 04:55:33;;;;;;;1.10;1.00;;;25.00;64.40;;;;;;5054170;28;20025;-57
2022/08/22 04:58:33;;;;;;;2.03;1.27;;;25.00;64.20;;;;;;5054059;28;20111;-54
2022/08/22 05:01:24;;;;;;;1.48;1.10;;;24.90;64.50;;;;;;5053934;28;20391;-56
2022/08/22 05:04:01;;;;;;;1.83;1.00;;;24.90;64.30;;;;;;5033395;28;20057;-55
2022/08/22 05:06:30;;;;;;;2.10;1.33;;;24.90;69.90;;;;;;5033577;28;20037;-56
2022/08/22 05:09:03;;;;;;;1.75;0.90;;;24.90;69.80;;;;;;5033821;28;20036;-55
2022/08/22 05:11:31;;;;;;;4.25;1.17;;;24.90;69.70;;;;;;5033772;28;20022;-56
2022/08/22 05:14:07;;;;;;;2.35;0.95;;;24.90;69.80;;;;;;5033792;28;20017;-56
2022/08/22 05:16:39;;;;;;;9.02;3.13;;;25.00;64.40;;;;;;5033704;28;20025;-57
2022/08/22 05:19:23;;;;;;;2.65;1.50;;;25.00;69.70;;;;;;5033564;28;20079;-57
2022/08/22 05:21:50;;;;;;;4.55;1.75;;;25.10;69.80;;;;;;5033557;28;20480;-56
2022/08/22 05:24:25;;;;;;;4.28;1.63;;;25.00;64.30;;;;;;5033412;28;20693;-58
2022/08/22 05:26:54;;;;;;;3.08;1.52;;;24.90;69.20;;;;;;5033373;28;20048;-56
2022/08/22 05:29:24;;;;;;;4.87;1.70;;;25.00;69.70;;;;;;5033342;28;20057;-56
2022/08/22 05:32:02;;;;;;;9.65;2.00;;;24.90;64.60;;;;;;5033344;28;20338;-58
2022/08/22 05:34:38;;;;;;;4.15;1.55;;;24.90;69.70;;;;;;5033513;28;20387;-57
2022/08/22 05:37:04;;;;;;;6.20;2.22;;;;;;;;;;5033335;28;20021;-58
2022/08/22 05:39:30;;;;;;;4.18;2.00;;;;;;;;;;5033152;28;20219;-57
2022/08/22 05:42:01;;;;;;;6.82;1.88;;;24.90;70.10;;;;;;5033127;28;20427;-58
2022/08/22 05:44:36;;;;;;;4.43;1.75;;;25.00;70.00;;;;;;5033145;28;20030;-56
2022/08/22 05:47:22;;;;;;;5.68;1.60;;;24.90;64.30;;;;;;5033149;28;20387;-57
2022/08/22 05:50:02;;;;;;;4.00;1.63;;;24.80;64.20;;;;;;5033045;28;20383;-58
2022/08/22 05:52:46;;;;;;;;;;;25.00;65.00;;;;;;5033477;28;20033;-57
2022/08/22 05:55:30;;;;;;;4.70;1.90;;;25.20;64.80;;;;;;5032987;28;20355;-56
2022/08/22 05:58:12;;;;;;;14.00;1.92;;;25.10;64.90;;;;;;5032915;28;20032;-57
2022/08/22 06:00:42;;;;;;;3.88;1.38;;;25.00;70.50;;;;;;5015114;28;20029;-55
2022/08/22 06:03:26;;;;;;;7.57;1.67;;;25.00;64.90;;;;;;5032219;28;20053;-55
2022/08/22 06:05:58;;;;;;;6.75;2.00;;;24.90;70.60;;;;;;5032677;28;20055;-57
2022/08/22 06:08:33;;;;;;;8.35;2.10;;;25.20;65.30;;;;;;5032869;28;20360;-54
2022/08/22 06:11:06;;;;;;;6.97;1.85;;;24.90;70.80;;;;;;5032716;28;20083;-56
2022/08/22 06:13:44;;;;;;;5.40;1.40;;;24.90;65.20;;;;;;5032672;28;20022;-56
2022/08/22 06:16:19;;;;;;;4.78;1.48;;;24.90;65.20;;;;;;5032465;28;20052;-56
2022/08/22 06:18:48;;;;;;;4.65;1.85;;;24.90;70.80;;;;;;5032654;28;20438;-55
2022/08/22 06:21:19;;;;;;;5.43;1.77;;;24.80;65.20;;;;;;5032534;28;20029;-56
2022/08/22 06:23:55;;;;;;;4.10;1.42;;;24.70;70.60;;;;;;5032493;28;20048;-56
2022/08/22 06:26:24;;;;;;;2.70;1.48;;;24.90;70.70;;;;;;5032667;28;20061;-57
2022/08/22 06:28:54;;;;;;;4.95;1.73;;;24.90;70.80;;;;;;5032383;28;20112;-56
2022/08/22 06:31:21;;;;;;;;;;;24.90;71.50;;;;;;5032820;28;20101;-57
2022/08/22 06:34:09;;;;;;;3.67;1.73;;;24.90;65.00;;;;;;5032286;28;19905;-55
2022/08/22 06:36:39;;;;;;;3.95;1.67;;;24.70;70.50;;;;;;5032337;28;20443;-56
2022/08/22 06:39:15;;;;;;;4.00;1.63;;;24.90;64.70;;;;;;5032128;28;20013;-56
2022/08/22 06:42:01;;;;;;;4.25;1.58;;;25.00;64.80;;;;;;5032291;28;20049;-55
2022/08/22 06:44:33;;;;;;;2.53;1.52;;;25.00;70.20;;;;;;5032288;28;20074;-55
2022/08/22 06:47:02;;;;;;;3.30;1.58;;;25.10;70.10;;;;;;5032218;28;20029;-56
2022/08/22 06:49:31;;;;;;;3.83;1.45;;;25.20;69.90;;;;;;5032137;28;20468;-56
2022/08/22 06:52:00;;;;;;;3.28;1.25;;;25.00;70.00;;;;;;5032186;28;20030;-56
2022/08/22 06:54:31;;;;;;;2.70;1.13;;;25.10;70.00;;;;;;5032121;28;20024;-55
2022/08/22 06:56:57;;;;;;;3.17;1.33;;;;;;;;;;5032064;28;20038;-56
2022/08/22 06:59:27;;;;;;;2.75;1.38;;;25.00;70.00;;;;;;5032030;28;20033;-55
2022/08/22 07:02:07;;;;;;;4.55;1.70;;;25.10;64.30;;;;;;5031836;28;20036;-56
2022/08/22 07:04:33;;;;;;;1.60;1.00;;;;;;;;;;5031992;28;20377;-56
2022/08/22 07:07:00;;;;;;;2.80;1.23;;;25.10;69.80;;;;;;5014272;28;20108;-55
2022/08/22 07:09:34;;;;;;;2.08;1.30;;;25.10;69.70;;;;;;5032089;28;20419;-53
2022/08/22 07:12:18;;;;;;;3.95;1.40;;;24.90;70.10;;;;;;5031807;28;20403;-54
2022/08/22 07:14:48;;;;;;;5.38;1.40;;;25.30;70.20;;;;;;5031738;28;20486;-51
2022/08/22 07:17:25;;;;;;;4.88;1.30;;;25.10;64.50;;;;;;5031893;28;20036;-54
2022/08/22 07:20:15;;;;;;;4.13;1.35;;;25.10;64.70;;;;;;5031821;28;20030;-52
2022/08/22 07:22:58;;;;;;;4.40;1.55;;;25.20;70.00;;;;;;5031910;28;20377;-53
2022/08/22 07:25:25;;;;;;;4.55;1.20;;;25.30;68.90;;;;;;5031878;28;20583;-53
2022/08/22 07:28:17;;;;;;;5.32;1.40;;;25.30;64.20;;;;;;5032863;28;20067;-55
2022/08/22 07:30:53;;;;;;;4.07;1.77;;;25.20;64.20;;;;;;5031830;28;20361;-53
2022/08/22 07:33:47;;;;;;;5.28;1.65;;;25.20;64.00;;;;;;5035671;28;20025;-50
2022/08/22 07:36:19;;;;;;;3.33;1.60;;;25.30;69.90;;;;;;5035727;28;20546;-51
2022/08/22 07:39:23;;;;;;;7.57;1.88;;;25.10;69.70;;;;;;5017942;28;20032;-54
2022/08/22 07:42:04;;;;;;;4.05;1.50;;;25.30;64.30;;;;;;5021089;28;20468;-52
2022/08/22 07:44:39;;;;;;;3.13;1.50;;;25.00;69.60;;;;;;5035416;28;20037;-54
2022/08/22 07:47:11;;;;;;;5.10;1.30;;;25.20;69.70;;;;;;5035595;28;20022;-53
2022/08/22 07:49:50;;;;;;;5.85;1.35;;;25.40;69.90;;;;;;5035430;28;20501;-53
2022/08/22 07:52:17;;;;;;;2.30;1.50;;;25.20;67.80;;;;;;5035406;28;20228;-52
2022/08/22 07:55:00;;;;;;;4.07;1.30;;;25.00;64.20;;;;;;5035379;28;20156;-53
2022/08/22 07:57:34;;;;;;;4.20;1.60;;;25.10;64.10;;;;;;5035181;28;20018;-52
2022/08/22 08:00:03;;;;;;;3.70;1.45;;;25.20;69.70;;;;;;5035251;28;20069;-54
2022/08/22 08:02:29;;;;;;;3.85;1.08;;;;;;;;;;5035027;28;20415;-53
2022/08/22 08:04:59;;;;;;;2.20;1.40;;;25.30;69.80;;;;;;5034964;28;20033;-55
2022/08/22 08:07:27;;;;;;;4.85;1.35;;;25.30;70.00;;;;;;5035011;28;20024;-55
2022/08/22 08:09:56;;;;;;;2.38;1.30;;;25.30;69.80;;;;;;5035006;28;20029;-55
2022/08/22 08:12:38;;;;;;;5.83;1.37;;;25.40;69.90;;;;;;5034954;28;20026;-54
2022/08/22 08:15:09;;;;;;;4.82;1.50;;;25.20;69.90;;;;;;5034841;28;20022;-55
2022/08/22 08:17:37;;;;;;;3.05;1.23;;;25.20;70.20;;;;;;5034932;28;20032;-52
2022/08/22 08:20:09;;;;;;;10.57;2.13;;;25.30;69.80;;;;;;5034852;28;20025;-51
2022/08/22 08:22:37;;;;;;;3.83;1.23;;;25.20;69.80;;;;;;5034785;28;20025;-53
2022/08/22 08:25:06;;;;;;;4.10;1.38;;;25.30;70.10;;;;;;5034570;28;20036;-52
2022/08/22 08:30:34;;;;;;;2.65;1.30;;;25.40;70.00;;;;;;5035165;28;20399;-50
2022/08/22 08:33:01;;;;;;;3.90;1.95;;;25.40;69.10;;;;;;5034420;28;20025;-54
2022/08/22 08:35:31;;;;;;;3.13;1.27;;;25.30;69.70;;;;;;5034461;28;20033;-53
2022/08/22 08:37:57;;;;;;;2.22;1.10;;;;;;;;;;5034361;28;20029;-54
2022/08/22 08:40:32;;;;;;;3.67;1.65;;;25.30;70.00;;;;;;5034087;28;20029;-55
2022/08/22 08:46:24;;;;;;;3.22;1.30;;;25.20;64.40;;;;;;5034284;28;20056;-55
2022/08/22 08:48:50;;;;;;;5.00;1.70;;;;;;;;;;5034068;28;20052;-51
2022/08/22 08:51:25;;;;;;;4.72;1.77;;;25.30;64.50;;;;;;5034294;28;20056;-55
2022/08/22 08:54:21;;;;;;;4.20;1.50;;;25.10;64.50;;;;;;5033978;28;20025;-53
2022/08/22 08:57:04;;;;;;;4.35;1.30;;;24.90;64.40;;;;;;5033962;28;20429;-55
2022/08/22 08:59:52;;;;;;;2.88;1.70;;;25.40;64.60;;;;;;5033872;28;20037;-54
2022/08/22 09:02:39;;;;;;;5.38;1.20;;;25.40;65.10;;;;;;5033617;28;20073;-56
2022/08/22 09:05:22;;;;;;;7.80;1.65;;;25.50;65.20;;;;;;5033723;28;20719;-55
2022/08/22 09:08:23;;;;;;;5.85;1.90;;;25.60;65.30;;;;;;5033802;28;20503;-54
2022/08/22 09:11:05;;;;;;;6.40;1.42;;;25.50;64.80;;;;;;5016213;28;20124;-54
2022/08/22 09:13:42;;;;;;;4.85;1.67;;;25.50;64.70;;;;;;5033519;28;20103;-53
2022/08/22 09:16:08;;;;;;;5.13;1.60;;;;;;;;;;5033426;28;20429;-54
2022/08/22 09:19:07;;;;;;;5.32;1.80;;;25.50;64.90;;;;;;5033598;28;20017;-53
2022/08/22 09:21:57;;;;;;;4.43;1.70;;;25.70;64.90;;;;;;5033259;28;20361;-55
2022/08/22 09:24:47;;;;;;;4.57;1.83;;;25.50;64.80;;;;;;5033238;28;20365;-54
2022/08/22 09:27:29;;;;;;;7.55;2.45;;;25.60;64.80;;;;;;5033191;28;20032;-50
2022/08/22 09:30:03;;;;;;;4.82;1.75;;;25.50;70.30;;;;;;5033259;28;20032;-53
2022/08/22 09:32:45;;;;;;;5.70;1.92;;;25.50;64.60;;;;;;5033281;28;20026;-54
2022/08/22 09:35:11;;;;;;;6.18;1.90;;;;;;;;;;5033336;28;20032;-54
2022/08/22 09:37:52;;;;;;;4.25;1.90;;;25.50;64.60;;;;;;5033356;28;20022;-52
2022/08/22 09:40:37;;;;;;;3.33;1.42;;;25.50;64.70;;;;;;5033342;28;20065;-53
2022/08/22 09:43:18;;;;;;;3.70;1.48;;;25.50;64.70;;;;;;5033357;28;20168;-54
2022/08/22 09:46:13;;;;;;;3.20;1.40;;;25.50;65.00;;;;;;5033173;28;20033;-51
2022/08/22 09:49:00;;;;;;;9.18;1.33;;;25.70;65.00;;;;;;5016233;28;20499;-51
2022/08/22 09:51:37;;;;;;;6.47;1.10;;;25.60;70.10;;;;;;5032626;28;20030;-53
2022/08/22 09:54:12;;;;;;;3.38;1.20;;;25.60;64.70;;;;;;5032898;28;20048;-56
2022/08/22 09:56:47;;;;;;;6.47;1.40;;;25.50;70.00;;;;;;5033050;28;20025;-56
2022/08/22 09:59:22;;;;;;;7.10;1.55;;;25.50;69.90;;;;;;5032957;28;20477;-56
2022/08/22 10:02:12;;;;;;;2.60;1.38;;;25.60;64.50;;;;;;5032593;28;20044;-51
2022/08/22 10:04:50;;;;;;;5.63;1.65;;;25.50;70.10;;;;;;5032701;28;20087;-55
2022/08/22 10:07:34;;;;;;;3.72;1.70;;;25.60;64.50;;;;;;5014962;28;20602;-53
2022/08/22 10:10:00;;;;;;;4.28;1.67;;;;;;;;;;5032796;28;20057;-54
2022/08/22 10:12:35;;;;;;;4.13;1.05;;;25.60;69.60;;;;;;5032576;28;20065;-52
2022/08/22 10:15:19;;;;;;;4.72;1.50;;;25.50;64.10;;;;;;5032530;28;20091;-51
2022/08/22 10:17:57;;;;;;;5.95;1.20;;;25.50;63.90;;;;;;5032349;28;20108;-49
2022/08/22 10:20:30;;;;;;;4.78;1.80;;;25.60;69.70;;;;;;5032391;28;20025;-53
2022/08/22 10:22:56;;;;;;;4.38;1.30;;;;;;;;;;5032391;28;20036;-52
2022/08/22 10:25:43;;;;;;;4.38;1.92;;;25.60;63.90;;;;;;5032255;28;20133;-50
2022/08/22 10:28:16;;;;;;;2.50;1.30;;;25.60;70.00;;;;;;5032488;28;20034;-51
2022/08/22 10:31:19;;;;;;;4.03;1.17;;;25.60;64.30;;;;;;5032356;28;20423;-50
2022/08/22 10:34:03;;;;;;;3.50;1.27;;;25.70;64.40;;;;;;5032394;28;20109;-53
2022/08/22 10:36:57;;;;;;;3.35;1.45;;;25.80;64.30;;;;;;5032180;28;20079;-53
2022/08/22 10:39:26;;;;;;;5.28;1.38;;;25.80;69.80;;;;;;5032317;28;20025;-52
2022/08/22 10:42:21;;;;;;;5.18;2.03;;;25.90;64.20;;;;;;5032193;28;20498;-50
2022/08/22 10:44:58;;;;;;;2.38;1.35;;;26.00;69.80;;;;;;5032335;28;20549;-55
2022/08/22 10:48:04;;;;;;;4.25;1.30;;;25.80;69.40;;;;;;5032543;28;20543;-53
2022/08/22 10:50:35;;;;;;;2.97;1.42;;;26.00;63.80;;;;;;5002704;28;20052;-53
2022/08/22 10:53:32;;;;;;;4.20;1.38;;;25.90;69.20;;;;;;5032029;28;20076;-51
2022/08/22 10:56:03;;;;;;;3.67;1.52;;;26.00;69.00;;;;;;5032349;28;20030;-52
2022/08/22 10:58:35;;;;;;;3.95;1.42;;;26.00;68.10;;;;;;5032241;28;20049;-51
2022/08/22 11:01:03;;;;;;;3.47;1.42;;;;;;;;;;5032107;28;20018;-53
2022/08/22 11:03:49;;;;;;;3.92;1.33;;;26.30;62.30;;;;;;5015409;28;20518;-51
2022/08/22 11:06:22;;;;;;;4.53;1.67;;;26.10;67.70;;;;;;5034795;28;20511;-55
2022/08/22 11:08:59;;;;;;;4.55;1.40;;;26.20;62.10;;;;;;5034792;28;20028;-54
2022/08/22 11:12:01;;;;;;;6.30;1.60;;;26.10;61.80;;;;;;5034690;28;20040;-55
2022/08/22 11:14:54;;;;;;;3.80;1.25;;;26.20;61.90;;;;;;5034628;28;20022;-55
2022/08/22 11:17:20;;;;;;;3.92;1.35;;;;;;;;;;5034462;28;20030;-53
2022/08/22 11:19:51;;;;;;;3.85;1.30;;;26.20;61.70;;;;;;5034509;28;20075;-55
2022/08/22 11:22:29;;;;;;;4.35;1.45;;;26.20;61.70;;;;;;5034491;28;20033;-50
2022/08/22 11:25:29;;;;;;;2.38;1.30;;;26.20;62.30;;;;;;5034428;28;20021;-51
2022/08/22 11:28:13;;;;;;;;;;;26.30;63.00;;;;;;5034686;28;20479;-51
2022/08/22 11:30:48;;;;;;;1.92;1.30;;;26.40;62.50;;;;;;5034304;28;19998;-52
2022/08/22 11:33:36;;;;;;;2.55;1.30;;;26.40;62.40;;;;;;5034213;28;20072;-54
2022/08/22 11:36:26;;;;;;;2.67;1.20;;;26.40;62.30;;;;;;5034204;28;20087;-52
2022/08/22 11:39:08;;;;;;;4.57;1.48;;;26.30;67.80;;;;;;5016416;28;20656;-50
2022/08/22 11:41:47;;;;;;;4.85;1.60;;;26.40;62.10;;;;;;5034051;28;20017;-53
2022/08/22 11:44:40;;;;;;;7.80;1.33;;;26.40;62.20;;;;;;5034087;28;20029;-50
2022/08/22 11:47:10;;;;;;;4.55;1.38;;;26.50;68.10;;;;;;5034096;28;20087;-51
2022/08/22 11:49:57;;;;;;;1.77;1.27;;;26.70;61.70;;;;;;5016168;28;20083;-50
2022/08/22 11:52:38;;;;;;;5.00;1.45;;;26.50;62.20;;;;;;5033926;28;20428;-50
2022/08/22 11:55:18;;;;;;;4.95;1.30;;;26.90;62.50;;;;;;5033837;28;20560;-50
2022/08/22 11:57:49;;;;;;;2.35;1.40;;;26.60;62.10;;;;;;5033930;28;20029;-50
2022/08/22 12:00:15;;;;;;;4.68;1.10;;;;;;;;;;5033785;28;20407;-50
2022/08/22 12:02:41;;;;;;;3.72;1.40;;;;;;;;;;4996702;28;1070118;-50
2022/08/22 12:05:23;;;;;;;3.15;1.23;;;26.60;61.90;;;;;;5034751;28;20122;-51
2022/08/22 12:08:04;;;;;;;3.53;1.17;;;26.90;62.00;;;;;;5034968;28;20476;-51
2022/08/22 12:10:33;;;;;;;2.47;1.30;;;26.70;67.50;;;;;;5034792;28;20032;-51
2022/08/22 12:13:06;;;;;;;3.67;1.30;;;26.80;67.40;;;;;;5034670;28;20018;-50
2022/08/22 12:15:35;;;;;;;2.88;1.10;;;26.80;62.10;;;;;;5034524;28;20468;-49
2022/08/22 12:18:18;;;;;;;3.75;1.30;;;26.80;62.00;;;;;;5034739;28;20022;-54
2022/08/22 12:21:07;;;;;;;3.92;1.38;;;26.80;67.50;;;;;;5034782;28;20029;-54
2022/08/22 12:24:11;;;;;;;1.95;1.20;;;26.80;61.60;;;;;;5034683;28;20479;-53
2022/08/22 12:26:57;;;;;;;3.83;1.08;;;26.80;61.60;;;;;;5034512;28;20033;-51
2022/08/22 12:30:00;;;;;;;3.45;1.27;;;26.80;61.50;;;;;;5034553;28;20021;-53
2022/08/22 12:32:57;;;;;;;5.25;1.50;;;26.80;61.50;;;;;;5034400;28;20025;-54
2022/08/22 12:35:40;;;;;;;3.90;1.10;;;26.90;61.60;;;;;;5034469;28;20033;-53
2022/08/22 12:38:06;;;;;;;2.70;1.25;;;;;;;;;;5034518;28;20025;-54
2022/08/22 12:40:37;;;;;;;4.70;1.08;;;26.70;61.50;;;;;;5034235;28;20495;-54
2022/08/22 12:43:03;;;;;;;2.88;1.10;;;;;;;;;;5034289;28;20034;-50
2022/08/22 12:45:41;;;;;;;2.53;1.05;;;26.80;61.30;;;;;;5033985;28;20041;-53
2022/08/22 12:48:19;;;;;;;4.38;1.17;;;26.90;67.00;;;;;;5034136;28;20021;-50
2022/08/22 12:50:56;;;;;;;2.22;0.95;;;26.90;61.50;;;;;;5034223;28;20025;-51
2022/08/22 12:53:40;;;;;;;3.67;1.00;;;26.90;61.30;;;;;;5034274;28;20022;-55
2022/08/22 12:56:26;;;;;;;3.35;1.33;;;26.90;66.80;;;;;;5034114;28;20106;-55
2022/08/22 12:59:25;;;;;;;4.15;1.42;;;26.90;61.40;;;;;;5034123;28;20025;-53
2022/08/22 13:01:55;;;;;;;2.70;1.23;;;26.90;66.90;;;;;;5033810;28;20099;-56
2022/08/22 13:04:27;;;;;;;2.67;1.10;;;26.90;61.20;;;;;;5030059;28;20069;-54
2022/08/22 13:07:04;;;;;;;1.40;0.90;;;26.80;61.00;;;;;;5034026;28;20021;-54
2022/08/22 13:09:34;;;;;;;3.13;1.13;;;26.90;66.40;;;;;;5033893;28;20041;-56
2022/08/22 13:12:03;;;;;;;;;;;26.90;66.80;;;;;;5034685;28;20063;-51
2022/08/22 13:14:32;;;;;;;4.40;1.13;;;26.90;66.40;;;;;;5033852;28;19905;-51
2022/08/22 13:17:03;;;;;;;3.70;1.23;;;26.90;66.30;;;;;;5033741;28;20060;-50
2022/08/22 13:19:34;;;;;;;3.65;1.08;;;26.90;66.60;;;;;;5033747;28;20523;-49
2022/08/22 13:22:15;;;;;;;2.63;1.13;;;26.80;60.90;;;;;;5033717;28;20021;-47
2022/08/22 13:25:10;;;;;;;2.47;1.02;;;26.90;60.90;;;;;;5033337;28;20040;-53
2022/08/22 13:27:46;;;;;;;5.05;1.23;;;26.90;66.60;;;;;;5020009;28;20087;-50
2022/08/22 13:30:37;;;;;;;5.18;1.63;;;26.90;61.20;;;;;;5033607;28;20021;-56
2022/08/22 13:33:13;;;;;;;2.17;1.10;;;26.90;61.00;;;;;;5033501;28;20029;-56
2022/08/22 13:35:39;;;;;;;5.18;1.30;;;;;;;;;;5033412;28;20021;-54
2022/08/22 13:38:09;;;;;;;2.35;1.15;;;26.90;66.50;;;;;;5033433;28;20029;-55
2022/08/22 13:40:36;;;;;;;3.33;1.25;;;26.70;63.60;;;;;;5033557;28;20022;-55
2022/08/22 13:43:12;;;;;;;3.47;1.00;;;26.90;60.60;;;;;;5033185;28;20071;-56
2022/08/22 13:45:41;;;;;;;2.40;1.05;;;26.90;66.50;;;;;;5033365;28;20092;-55
2022/08/22 13:48:13;;;;;;;3.70;1.20;;;26.90;61.00;;;;;;5033260;28;20049;-55
2022/08/22 13:50:54;;;;;;;2.40;1.20;;;26.80;66.40;;;;;;5033135;28;20356;-56
2022/08/22 13:53:46;;;;;;;4.05;1.10;;;26.90;61.00;;;;;;5033017;28;20026;-55
2022/08/22 13:56:19;;;;;;;3.05;1.13;;;26.80;66.50;;;;;;5032304;28;20037;-53
2022/08/22 13:58:49;;;;;;;3.13;1.38;;;26.80;66.60;;;;;;5032841;28;20107;-53
2022/08/22 14:01:15;;;;;;;1.83;1.08;;;;;;;;;;5032736;28;20388;-51
2022/08/22 14:03:44;;;;;;;2.25;1.30;;;;;;;;;;5032472;28;20037;-52
2022/08/22 14:06:25;;;;;;;2.67;1.20;;;26.80;66.50;;;;;;5032710;28;20040;-55
2022/08/22 14:08:58;;;;;;;0.90;0.80;;;26.80;66.70;;;;;;5032701;28;20144;-55
2022/08/22 14:11:54;;;;;;;3.38;1.38;;;26.80;60.90;;;;;;5032542;28;20114;-56
2022/08/22 14:14:27;;;;;;;3.95;1.25;;;26.80;61.40;;;;;;5030555;28;20511;-55